Terminal Aerodrome Forecast
Issued by NWS

Home | Current Version | Previous Version | Text Only | Print | Product List | Glossary On
Versions: 1 2 3 4 5 6 7 8 9 10 11 12 13 14 15 16 17 18 19 20 21 22 23 24 25 26 27 28 29 30 31 32 33 34 35 36 37 38 39
150
FTUS41 KBOX 241129
TAFBAF
TAF
KBAF 241129Z 2412/2512 04005KT P6SM -SHRA OVC060
     FM241300 03005KT P6SM VCSH BKN015
     FM242100 01004KT P6SM VCSH BKN090
     FM250000 28004KT P6SM OVC080
     FM250400 00000KT P6SM BKN200
     FM250800 00000KT 5SM BR SCT250
     FM251100 00000KT P6SM FEW250=

USA.gov is the U.S. government's official web portal to all federal, state and local government web resources and services.